LTBL/IGI METAR and TAF weather

Enter ICAO airport designator
Station Type Date Time Source
LTBL METAR 2022/01/26 19:50 UTC NOAA

LTBL 261950Z VRB01KT CAVOK 01/M07 Q1024 NOSIG RMK RWY17 03005KT


Station Type Date Time Source
LTBL Decoded METAR 2022/01/26 19:50 UTC NOAA

Izmir / Cigli, Turkey (LTBL) 38-30N 027-01E 5M
Jan 26, 2022 - 02:50 PM EST / 2022.01.26 1950 UTC
Wind: Variable at 1 MPH (1 KT):0
Visibility: greater than 7 mile(s):0
Temperature: 33 F (1 C)
Dew Point: 19 F (-7 C)
Relative Humidity: 55%
Pressure (altimeter): 30.24 in. Hg (1024 hPa)
ob: LTBL 261950Z VRB01KT CAVOK 01/M07 Q1024 NOSIG RMK RWY17 03005KT 360V080
cycle: 20

Station Type Date Time Source
LTBL TAF UTC NOAA

Error!

Example: see airport list